createdAt,value
2018-08-27T00:00:59.404Z,97992.48
2018-08-27T00:03:29.319Z,97992.12
2018-08-27T00:05:59.458Z,97998.53
2018-08-27T00:08:28.287Z,98002.27
2018-08-27T00:10:56.952Z,98008.55
2018-08-27T00:13:25.872Z,98011.25
2018-08-27T00:15:55.429Z,98015.09
2018-08-27T00:18:24.584Z,98008.18
2018-08-27T00:20:53.363Z,98014.12
2018-08-27T00:23:22.065Z,98013.88
2018-08-27T00:25:50.747Z,98013.58
2018-08-27T00:28:19.597Z,98013.58
2018-08-27T00:30:48.600Z,98005.28
2018-08-27T00:33:17.274Z,98008.95
2018-08-27T00:35:46.306Z,97999.06
2018-08-27T00:38:15.838Z,98000.89
2018-08-27T00:40:44.736Z,97999.47
2018-08-27T00:43:14.078Z,97996.92
2018-08-27T00:45:43.067Z,97998.44
2018-08-27T00:48:12.437Z,98002.76
2018-08-27T00:50:41.558Z,98008.02
2018-08-27T00:53:10.180Z,98010.64
2018-08-27T00:55:38.984Z,98016.55
2018-08-27T00:58:07.559Z,98012.19
2018-08-27T01:00:36.453Z,98012.45
2018-08-27T01:03:05.999Z,98014.31
2018-08-27T01:05:35.897Z,98008.41
2018-08-27T01:08:05.128Z,98000.03
2018-08-27T01:10:37.115Z,98003.23
2018-08-27T01:13:05.757Z,98001.38
2018-08-27T01:15:34.583Z,97984.90
2018-08-27T01:18:03.223Z,97993.20
2018-08-27T01:20:31.927Z,97989.34
2018-08-27T01:23:01.468Z,97994.70
2018-08-27T01:25:30.305Z,97996.83
2018-08-27T01:27:59.900Z,97992.96
2018-08-27T01:30:28.758Z,97994.57
2018-08-27T01:32:58.739Z,97991.30
2018-08-27T01:35:27.733Z,97990.25
2018-08-27T01:37:56.783Z,97989.94
2018-08-27T01:40:25.659Z,97986.11
2018-08-27T01:42:54.328Z,97987.11
2018-08-27T01:45:23.105Z,97980.55
2018-08-27T01:47:51.659Z,97978.06
2018-08-27T01:50:20.364Z,97981.27
2018-08-27T01:52:49.259Z,97979.88
2018-08-27T01:55:17.965Z,97976.31
2018-08-27T01:57:46.843Z,97973.03
2018-08-27T02:00:15.872Z,97969.30
2018-08-27T02:02:44.710Z,97972.80
2018-08-27T02:05:13.334Z,97970.41
2018-08-27T02:07:42.389Z,97975.01
2018-08-27T02:10:11.005Z,97974.16
2018-08-27T02:12:39.769Z,97976.81
2018-08-27T02:15:09.565Z,97966.28
2018-08-27T02:17:39.054Z,97967.09
2018-08-27T02:20:07.719Z,97963.84
2018-08-27T02:22:36.544Z,97971.09
2018-08-27T02:25:05.340Z,97971.05
2018-08-27T02:27:34.356Z,97966.19
2018-08-27T02:30:03.855Z,97959.92
2018-08-27T02:32:33.794Z,97959.07
2018-08-27T02:35:02.522Z,97956.38
2018-08-27T02:37:32.093Z,97959.83
2018-08-27T02:40:01.136Z,97953.08
2018-08-27T02:42:30.403Z,97953.58
2018-08-27T02:44:59.062Z,97956.23
2018-08-27T02:47:28.343Z,97948.66
2018-08-27T02:49:57.371Z,97943.75
2018-08-27T02:52:26.541Z,97944.02
2018-08-27T02:54:55.606Z,97954.61
2018-08-27T02:57:25.277Z,97953.84
2018-08-27T02:59:54.894Z,97957.89
2018-08-27T03:02:25.540Z,97954.92
2018-08-27T03:04:54.375Z,97943.02
2018-08-27T03:07:23.115Z,97946.81
2018-08-27T03:09:51.916Z,97944.92
2018-08-27T03:12:20.910Z,97948.43
2018-08-27T03:14:49.735Z,97944.61
2018-08-27T03:17:18.558Z,97946.77
2018-08-27T03:19:47.122Z,97938.89
2018-08-27T03:22:16.216Z,97931.58
2018-08-27T03:24:45.620Z,97937.80
2018-08-27T03:27:14.409Z,97935.09
2018-08-27T03:29:43.988Z,97939.38
2018-08-27T03:32:14.368Z,97942.40
2018-08-27T03:34:44.385Z,97934.91
2018-08-27T03:37:13.545Z,97940.86
2018-08-27T03:39:43.915Z,97939.79
2018-08-27T03:42:12.674Z,97931.94
2018-08-27T03:44:42.273Z,97935.95
2018-08-27T03:47:11.078Z,97935.14
2018-08-27T03:49:39.895Z,97937.61
2018-08-27T03:52:08.930Z,97932.20
2018-08-27T03:54:38.646Z,97928.07
2018-08-27T03:57:07.325Z,97930.73
2018-08-27T03:59:36.775Z,97929.87
2018-08-27T04:02:05.398Z,97929.02
2018-08-27T04:04:34.140Z,97936.53
2018-08-27T04:07:03.295Z,97947.84
2018-08-27T04:09:33.020Z,97952.40
2018-08-27T04:12:01.868Z,97951.59
2018-08-27T04:14:30.543Z,97950.55
2018-08-27T04:17:00.540Z,97946.75
2018-08-27T04:19:32.339Z,97948.88
2018-08-27T04:22:03.553Z,97948.11
2018-08-27T04:24:32.305Z,97954.25
2018-08-27T04:27:00.999Z,97953.66
2018-08-27T04:29:29.728Z,97941.71
2018-08-27T04:31:58.510Z,97947.38
2018-08-27T04:34:27.294Z,97948.38
2018-08-27T04:36:57.073Z,97954.77
2018-08-27T04:39:25.731Z,97951.21
2018-08-27T04:41:55.626Z,97956.03
2018-08-27T04:44:25.533Z,97961.62
2018-08-27T04:46:54.380Z,97966.80
2018-08-27T04:49:23.009Z,97957.61
2018-08-27T04:51:51.915Z,97953.81
2018-08-27T04:54:21.507Z,97952.09
2018-08-27T04:56:50.306Z,97948.25
2018-08-27T04:59:26.021Z,97946.53
2018-08-27T05:01:54.896Z,97948.33
2018-08-27T05:04:23.924Z,97952.25
2018-08-27T05:06:53.599Z,97954.04
2018-08-27T05:09:23.986Z,97957.01
2018-08-27T05:11:52.644Z,97956.75
2018-08-27T05:14:23.234Z,97960.75
2018-08-27T05:16:52.140Z,97956.20
2018-08-27T05:19:21.650Z,97956.95
2018-08-27T05:21:50.310Z,97959.03
2018-08-27T05:24:20.145Z,97962.61
2018-08-27T05:26:49.102Z,97959.91
2018-08-27T05:29:18.574Z,97963.48
2018-08-27T05:31:48.307Z,97962.62
2018-08-27T05:34:17.799Z,97966.08
2018-08-27T05:36:46.429Z,97965.58
2018-08-27T05:39:15.130Z,97970.42
2018-08-27T05:41:44.051Z,97965.81
2018-08-27T05:44:12.675Z,97963.98
2018-08-27T05:46:41.787Z,97963.62
2018-08-27T05:49:11.131Z,97970.30
2018-08-27T05:51:40.064Z,97968.59
2018-08-27T05:54:08.805Z,97971.90
2018-08-27T05:56:37.910Z,97966.36
2018-08-27T05:59:07.017Z,97971.16
2018-08-27T06:01:35.711Z,97969.09
2018-08-27T06:04:04.559Z,97965.03
2018-08-27T06:06:34.950Z,97966.75
2018-08-27T06:09:05.195Z,97965.39
2018-08-27T06:11:34.146Z,97965.41
2018-08-27T06:14:03.324Z,97964.25
2018-08-27T06:16:32.147Z,97961.38
2018-08-27T06:19:00.788Z,97966.70
2018-08-27T06:21:29.661Z,97972.45
2018-08-27T06:23:58.320Z,97963.41
2018-08-27T06:26:27.750Z,97972.17
2018-08-27T06:28:56.424Z,97963.81
2018-08-27T06:31:26.041Z,97963.69
2018-08-27T06:33:54.785Z,97964.07
2018-08-27T06:36:23.501Z,97968.22
2018-08-27T06:38:52.591Z,97966.71
2018-08-27T06:41:21.729Z,97967.40
2018-08-27T06:43:51.595Z,97967.70
2018-08-27T06:46:20.553Z,97963.77
2018-08-27T06:48:50.178Z,97965.70
2018-08-27T06:51:19.906Z,97966.09
2018-08-27T06:53:48.567Z,97963.29
2018-08-27T06:56:18.240Z,97968.71
2018-08-27T06:58:47.530Z,97964.99
2018-08-27T07:01:16.731Z,97968.11
2018-08-27T07:03:45.430Z,97967.37
2018-08-27T07:06:14.210Z,97974.59
2018-08-27T07:08:42.926Z,97977.38
2018-08-27T07:11:11.634Z,97973.78
2018-08-27T07:13:41.032Z,97967.02
2018-08-27T07:16:10.505Z,97970.16
2018-08-27T07:18:39.480Z,97967.97
2018-08-27T07:21:10.063Z,97978.14
2018-08-27T07:23:39.762Z,97972.55
2018-08-27T07:26:08.477Z,97972.47
2018-08-27T07:28:38.088Z,97972.83
2018-08-27T07:31:07.283Z,97969.86
2018-08-27T07:33:36.088Z,97968.86
2018-08-27T07:36:04.853Z,97973.25
2018-08-27T07:38:33.571Z,97977.36
2018-08-27T07:41:02.255Z,97983.48
2018-08-27T07:43:31.752Z,97984.69
2018-08-27T07:46:01.685Z,97979.88
2018-08-27T07:48:31.056Z,97976.11
2018-08-27T07:50:59.795Z,97979.92
2018-08-27T07:53:28.530Z,97982.33
2018-08-27T07:55:57.605Z,97981.98
2018-08-27T07:58:27.382Z,97980.58
2018-08-27T08:00:56.937Z,97987.94
2018-08-27T08:03:26.280Z,97986.02
2018-08-27T08:05:55.060Z,97980.77
2018-08-27T08:08:24.581Z,97991.11
2018-08-27T08:10:54.964Z,97991.39
2018-08-27T08:13:24.805Z,98000.27
2018-08-27T08:15:53.588Z,97995.45
2018-08-27T08:18:22.536Z,97988.59
2018-08-27T08:20:53.258Z,97984.70
2018-08-27T08:23:21.976Z,97980.39
2018-08-27T08:25:51.136Z,97986.09
2018-08-27T08:28:19.983Z,97983.11
2018-08-27T08:30:48.808Z,97982.38
2018-08-27T08:33:17.771Z,97981.06
2018-08-27T08:35:46.981Z,97987.03
2018-08-27T08:38:16.281Z,97981.79
2018-08-27T08:40:45.507Z,97981.65
2018-08-27T08:43:14.684Z,97980.83
2018-08-27T08:45:43.613Z,97986.83
2018-08-27T08:48:12.243Z,97988.86
2018-08-27T08:50:41.019Z,97983.08
2018-08-27T08:53:09.733Z,97981.81
2018-08-27T08:55:39.336Z,97974.66
2018-08-27T08:58:08.265Z,97971.89
2018-08-27T09:00:36.927Z,97978.06
2018-08-27T09:03:05.972Z,97979.70
2018-08-27T09:05:36.056Z,97982.52
2018-08-27T09:08:05.066Z,97983.63
2018-08-27T09:10:34.473Z,97988.50
2018-08-27T09:13:04.511Z,97982.69
2018-08-27T09:15:33.351Z,97985.92
2018-08-27T09:18:04.230Z,97986.30
2018-08-27T09:20:33.122Z,97990.02
2018-08-27T09:23:01.978Z,97983.55
2018-08-27T09:25:30.632Z,97990.73
2018-08-27T09:27:59.732Z,97992.12
2018-08-27T09:30:30.055Z,97989.84
2018-08-27T09:33:00.491Z,97995.19
2018-08-27T09:35:29.182Z,97992.93
2018-08-27T09:37:57.860Z,97995.13
2018-08-27T09:40:26.743Z,97992.77
2018-08-27T09:42:56.176Z,97985.30
2018-08-27T09:45:25.651Z,97981.45
2018-08-27T09:47:54.630Z,97989.15
2018-08-27T09:50:23.716Z,97989.09
2018-08-27T09:52:53.218Z,97986.28
2018-08-27T09:55:22.152Z,97982.16
2018-08-27T09:57:51.708Z,97973.42
2018-08-27T10:01:23.797Z,97973.08
2018-08-27T10:03:53.067Z,97966.80
2018-08-27T10:06:22.032Z,97955.38
2018-08-27T10:08:50.815Z,97963.98
2018-08-27T10:11:20.977Z,97959.09
2018-08-27T10:13:50.175Z,97955.84
2018-08-27T10:16:19.002Z,97963.78
2018-08-27T10:18:49.232Z,97963.68
2018-08-27T10:21:18.135Z,97967.88
2018-08-27T10:23:47.092Z,97965.30
2018-08-27T10:26:16.975Z,97963.81
2018-08-27T10:28:45.586Z,97959.65
2018-08-27T10:31:14.665Z,97962.19
2018-08-27T10:33:43.516Z,97957.33
2018-08-27T10:36:13.117Z,97962.28
2018-08-27T10:38:42.103Z,97954.87
2018-08-27T10:41:10.776Z,97944.70
2018-08-27T10:43:39.908Z,97959.59
2018-08-27T10:46:08.663Z,97951.20
2018-08-27T10:48:38.493Z,97953.81
2018-08-27T10:51:07.495Z,97954.91
2018-08-27T10:53:36.487Z,97951.22
2018-08-27T10:56:05.977Z,97949.52
2018-08-27T10:58:35.721Z,97947.59
2018-08-27T11:01:04.488Z,97952.56
2018-08-27T11:03:33.659Z,97948.22
2018-08-27T11:06:02.343Z,97943.72
2018-08-27T11:08:32.213Z,97957.74
2018-08-27T11:11:01.928Z,97949.24
2018-08-27T11:13:31.820Z,97955.19
2018-08-27T11:16:00.739Z,97954.78
2018-08-27T11:18:30.939Z,97955.97
2018-08-27T11:21:00.497Z,97956.39
2018-08-27T11:23:29.332Z,97947.27
2018-08-27T11:25:58.128Z,97955.73
2018-08-27T11:28:26.807Z,97951.73
2018-08-27T11:30:56.283Z,97962.18
2018-08-27T11:33:25.624Z,97955.97
2018-08-27T11:35:54.434Z,97954.55
2018-08-27T11:38:23.194Z,97956.38
2018-08-27T11:40:51.978Z,97947.51
2018-08-27T11:43:21.462Z,97959.37
2018-08-27T11:45:50.406Z,97958.94
2018-08-27T11:48:19.173Z,97945.59
2018-08-27T11:50:48.045Z,97955.84
2018-08-27T11:53:17.232Z,97960.87
2018-08-27T11:55:46.197Z,97958.52
2018-08-27T11:58:14.891Z,97954.02
2018-08-27T12:00:48.886Z,97959.31
2018-08-27T12:03:17.804Z,97954.19
2018-08-27T12:05:47.200Z,97946.59
2018-08-27T12:08:16.231Z,97946.11
2018-08-27T12:10:44.933Z,97947.33
2018-08-27T12:13:13.863Z,97942.89
2018-08-27T12:15:42.793Z,97951.73
2018-08-27T12:18:11.433Z,97951.86
2018-08-27T12:20:40.145Z,97948.59
2018-08-27T12:23:08.916Z,97943.75
2018-08-27T12:25:38.489Z,97945.75
2018-08-27T12:28:08.332Z,97940.55
2018-08-27T12:30:37.293Z,97940.78
2018-08-27T12:41:41.851Z,97936.06
2018-08-27T12:44:10.756Z,97937.06
2018-08-27T12:46:39.568Z,97945.18
2018-08-27T12:49:10.217Z,97942.37
2018-08-27T12:51:38.823Z,97939.78
2018-08-27T12:54:07.534Z,97941.23
2018-08-27T12:56:37.814Z,97939.44
2018-08-27T12:59:07.012Z,97948.45
2018-08-27T13:01:35.893Z,97955.76
2018-08-27T13:04:05.414Z,97951.52
2018-08-27T13:06:34.362Z,97960.16
2018-08-27T13:09:04.302Z,97957.91
2018-08-27T13:11:33.180Z,97942.79
2018-08-27T13:14:02.094Z,97941.27
2018-08-27T13:16:31.732Z,97949.15
2018-08-27T13:19:00.707Z,97941.48
2018-08-27T13:21:30.074Z,97942.38
2018-08-27T13:23:58.857Z,97942.30
2018-08-27T13:26:27.577Z,97941.19
2018-08-27T13:28:56.403Z,97948.47
2018-08-27T13:31:25.996Z,97946.19
2018-08-27T13:33:55.156Z,97943.40
2018-08-27T13:36:23.861Z,97943.06
2018-08-27T13:38:52.707Z,97948.02
2018-08-27T13:41:23.518Z,97946.62
2018-08-27T13:43:52.152Z,97950.54
2018-08-27T13:46:21.282Z,97948.45
2018-08-27T13:48:50.743Z,97941.88
2018-08-27T13:51:21.763Z,97945.75
2018-08-27T13:53:50.756Z,97944.47
2018-08-27T13:56:20.112Z,97946.62
2018-08-27T13:58:49.521Z,97956.85
2018-08-27T14:01:18.263Z,97953.55
2018-08-27T14:03:46.973Z,97953.42
2018-08-27T14:06:15.763Z,97962.72
2018-08-27T14:08:44.439Z,97965.91
2018-08-27T14:11:14.138Z,97976.48
2018-08-27T14:13:42.965Z,97967.38
2018-08-27T14:16:12.148Z,97967.03
2018-08-27T14:18:40.902Z,97969.84
2018-08-27T14:21:10.367Z,97965.04
2018-08-27T14:23:39.187Z,97960.57
2018-08-27T14:26:08.095Z,97963.94
2018-08-27T14:28:37.281Z,97957.53
2018-08-27T14:31:06.348Z,97960.02
2018-08-27T14:33:35.773Z,97955.06
2018-08-27T14:36:05.756Z,97953.60
2018-08-27T14:38:34.911Z,97957.84
2018-08-27T14:41:03.835Z,97955.64
2018-08-27T14:43:32.858Z,97953.83
2018-08-27T14:46:02.543Z,97962.16
2018-08-27T14:48:31.824Z,97963.60
2018-08-27T14:51:00.732Z,97960.34
2018-08-27T14:53:30.411Z,97966.81
2018-08-27T14:55:59.509Z,97960.28
2018-08-27T14:58:28.397Z,97959.73
2018-08-27T15:01:02.191Z,97959.33
2018-08-27T15:03:30.943Z,97951.08
2018-08-27T15:06:00.439Z,97948.45
2018-08-27T15:08:29.118Z,97946.97
2018-08-27T15:10:57.958Z,97951.84
2018-08-27T15:13:26.894Z,97956.59
2018-08-27T15:15:56.494Z,97962.58
2018-08-27T15:18:25.372Z,97960.11
2018-08-27T15:20:54.464Z,97960.22
2018-08-27T15:23:23.320Z,97961.31
2018-08-27T15:25:52.160Z,97961.31
2018-08-27T15:28:21.264Z,97966.86
2018-08-27T15:30:50.458Z,97966.86
2018-08-27T15:33:19.809Z,97973.50
2018-08-27T15:35:48.929Z,97974.77
2018-08-27T15:38:18.394Z,97968.41
2018-08-27T15:40:47.705Z,97971.23
2018-08-27T15:43:18.777Z,97971.13
2018-08-27T15:45:53.000Z,97969.54
2018-08-27T15:48:21.928Z,97980.52
2018-08-27T15:50:51.546Z,97980.77
2018-08-27T15:53:20.143Z,97986.98
2018-08-27T15:55:48.728Z,97982.72
2018-08-27T15:58:17.674Z,97981.39
2018-08-27T16:00:46.492Z,97983.61
2018-08-27T16:03:15.401Z,97981.25
2018-08-27T16:05:44.553Z,97988.91
2018-08-27T16:08:13.232Z,97988.96
2018-08-27T16:10:42.146Z,97990.71
2018-08-27T16:13:11.228Z,97984.83
2018-08-27T16:15:42.590Z,97989.37
2018-08-27T16:18:11.479Z,97996.10
2018-08-27T16:20:40.288Z,97992.31
2018-08-27T16:23:10.193Z,97994.52
2018-08-27T16:25:38.917Z,98003.64
2018-08-27T16:28:07.607Z,97998.48
2018-08-27T16:30:36.724Z,97993.75
2018-08-27T16:33:07.775Z,98004.63
2018-08-27T16:35:36.519Z,98009.17
2018-08-27T16:38:05.403Z,98011.09
2018-08-27T16:40:34.939Z,98010.71
2018-08-27T16:43:03.683Z,98008.48
2018-08-27T16:45:32.513Z,98007.70
2018-08-27T16:48:01.443Z,98007.91
2018-08-27T16:50:30.185Z,98002.36
2018-08-27T16:53:00.389Z,98003.73
2018-08-27T16:55:29.938Z,98004.88
2018-08-27T16:57:58.876Z,98008.23
2018-08-27T17:00:28.667Z,98015.14
2018-08-27T17:02:58.019Z,98019.08
2018-08-27T17:05:26.770Z,98021.25
2018-08-27T17:07:55.672Z,98028.13
2018-08-27T17:10:24.424Z,98022.17
2018-08-27T17:12:53.221Z,98031.19
2018-08-27T17:15:22.793Z,98030.95
2018-08-27T17:17:51.590Z,98031.72
2018-08-27T17:20:20.275Z,98030.91
2018-08-27T17:22:49.064Z,98029.09
2018-08-27T17:25:17.843Z,98026.95
2018-08-27T17:27:46.578Z,98032.06
2018-08-27T17:30:16.168Z,98035.36
2018-08-27T17:32:45.637Z,98041.45
2018-08-27T17:35:14.723Z,98046.17
2018-08-27T17:37:43.419Z,98052.84
2018-08-27T17:40:12.744Z,98053.37
2018-08-27T17:42:41.648Z,98049.80
2018-08-27T17:45:10.723Z,98050.52
2018-08-27T17:47:40.123Z,98050.22
2018-08-27T17:50:09.175Z,98047.87
2018-08-27T17:52:38.819Z,98047.92
2018-08-27T17:55:07.713Z,98055.89
2018-08-27T17:57:36.659Z,98054.02
2018-08-27T18:00:05.683Z,98056.22
2018-08-27T18:02:35.301Z,98063.91
2018-08-27T18:05:04.762Z,98061.23
2018-08-27T18:07:33.615Z,98068.30
2018-08-27T18:10:03.270Z,98072.95
2018-08-27T18:12:32.300Z,98068.66
2018-08-27T18:15:01.504Z,98070.55
2018-08-27T18:17:30.525Z,98085.50
2018-08-27T18:19:59.994Z,98083.58
2018-08-27T18:22:29.206Z,98084.88
2018-08-27T18:24:58.329Z,98088.05
2018-08-27T18:27:29.869Z,98086.80
2018-08-27T18:29:58.884Z,98096.01
2018-08-27T18:32:28.395Z,98108.23
2018-08-27T18:34:57.208Z,98112.37
2018-08-27T18:37:26.192Z,98118.91
2018-08-27T18:39:55.509Z,98122.02
2018-08-27T18:42:24.563Z,98121.19
2018-08-27T18:44:53.924Z,98120.61
2018-08-27T18:47:23.145Z,98132.91
2018-08-27T18:49:52.544Z,98136.19
2018-08-27T18:52:21.760Z,98143.99
2018-08-27T18:54:50.681Z,98141.05
2018-08-27T18:57:19.849Z,98148.50
2018-08-27T18:59:50.355Z,98151.16
2018-08-27T19:02:20.699Z,98143.63
2018-08-27T19:04:49.985Z,98149.30
2018-08-27T19:07:19.350Z,98157.37
2018-08-27T19:09:49.618Z,98160.30
2018-08-27T19:12:19.201Z,98159.13
2018-08-27T19:14:49.610Z,98169.41
2018-08-27T19:17:19.319Z,98173.88
2018-08-27T19:19:48.531Z,98169.08
2018-08-27T19:22:18.150Z,98172.48
2018-08-27T19:24:48.482Z,98173.91
2018-08-27T19:27:17.749Z,98182.77
2018-08-27T19:29:46.955Z,98189.42
2018-08-27T19:32:17.008Z,98190.95
2018-08-27T19:34:48.140Z,98193.31
2018-08-27T19:37:17.703Z,98197.73
2018-08-27T19:39:47.019Z,98196.35
2018-08-27T19:42:16.135Z,98201.63
2018-08-27T19:44:45.280Z,98210.59
2018-08-27T19:47:14.538Z,98210.59
2018-08-27T19:49:43.489Z,98208.13
2018-08-27T19:52:12.675Z,98208.30
2018-08-27T19:54:41.598Z,98209.95
2018-08-27T19:57:11.104Z,98214.08
2018-08-27T19:59:40.755Z,98205.17
2018-08-27T20:02:10.310Z,98208.95
2018-08-27T20:04:40.190Z,98201.99
2018-08-27T20:07:09.593Z,98197.23
2018-08-27T20:09:38.422Z,98203.02
2018-08-27T20:12:07.293Z,98205.10
2018-08-27T20:14:36.338Z,98208.59
2018-08-27T20:17:05.305Z,98212.34
2018-08-27T20:19:34.121Z,98215.47
2018-08-27T20:22:03.116Z,98210.25
2018-08-27T20:24:33.459Z,98214.22
2018-08-27T20:27:02.774Z,98218.14
2018-08-27T20:29:31.594Z,98214.86
2018-08-27T20:32:00.384Z,98220.86
2018-08-27T20:34:30.240Z,98220.80
2018-08-27T20:36:59.564Z,98227.88
2018-08-27T20:39:28.826Z,98225.50
2018-08-27T20:41:58.990Z,98230.55
2018-08-27T20:44:28.110Z,98230.39
2018-08-27T20:46:56.961Z,98234.64
2018-08-27T20:49:25.660Z,98235.50
2018-08-27T20:51:55.565Z,98238.62
2018-08-27T20:54:24.343Z,98239.89
2018-08-27T20:56:53.415Z,98239.02
2018-08-27T20:59:22.479Z,98243.06
2018-08-27T21:01:51.490Z,98241.59
2018-08-27T21:04:21.248Z,98242.88
2018-08-27T21:06:50.144Z,98243.81
2018-08-27T21:09:19.225Z,98242.05
2018-08-27T21:11:48.653Z,98240.80
2018-08-27T21:14:24.330Z,98241.81
2018-08-27T21:16:54.223Z,98236.12
2018-08-27T21:19:23.086Z,98233.63
2018-08-27T21:21:52.589Z,98236.19
2018-08-27T21:24:22.568Z,98232.00
2018-08-27T21:26:51.438Z,98235.31
2018-08-27T21:29:20.043Z,98236.44
2018-08-27T21:31:49.314Z,98234.16
2018-08-27T21:34:18.179Z,98239.69
2018-08-27T21:36:46.739Z,98237.91
2018-08-27T21:39:15.851Z,98242.15
2018-08-27T21:41:45.773Z,98242.80
2018-08-27T21:44:14.444Z,98247.27
2018-08-27T21:46:43.288Z,98246.91
2018-08-27T21:49:11.997Z,98250.70
2018-08-27T21:51:42.044Z,98254.61
2018-08-27T21:54:10.883Z,98256.79
2018-08-27T21:56:39.574Z,98251.06
2018-08-27T21:59:08.341Z,98254.82
2018-08-27T22:01:37.114Z,98261.47
2018-08-27T22:04:12.668Z,98258.48
2018-08-27T22:06:43.555Z,98258.41
2018-08-27T22:09:14.033Z,98268.36
2018-08-27T22:11:43.279Z,98269.41
2018-08-27T22:14:12.099Z,98273.88
2018-08-27T22:16:41.049Z,98273.61
2018-08-27T22:19:13.304Z,98278.05
2018-08-27T22:21:42.055Z,98277.01
2018-08-27T22:24:12.375Z,98274.59
2018-08-27T22:26:40.988Z,98274.03
2018-08-27T22:29:11.249Z,98271.08
2018-08-27T22:31:39.887Z,98279.33
2018-08-27T22:34:08.564Z,98272.03
2018-08-27T22:36:38.703Z,98278.58
2018-08-27T22:39:07.607Z,98279.37
2018-08-27T22:41:36.295Z,98281.33
2018-08-27T22:44:05.364Z,98284.06
2018-08-27T22:46:35.700Z,98282.02
2018-08-27T22:49:04.712Z,98286.36
2018-08-27T22:51:33.367Z,98288.53
2018-08-27T22:54:02.457Z,98292.17
2018-08-27T22:56:31.167Z,98285.89
2018-08-27T22:59:00.684Z,98287.83
2018-08-27T23:01:29.602Z,98292.87
2018-08-27T23:04:03.654Z,98292.98
2018-08-27T23:06:32.924Z,98290.59
2018-08-27T23:09:03.048Z,98298.36
2018-08-27T23:11:32.707Z,98295.05
2018-08-27T23:14:01.738Z,98300.98
2018-08-27T23:16:32.158Z,98296.42
2018-08-27T23:19:03.287Z,98301.42
2018-08-27T23:21:33.088Z,98296.98
2018-08-27T23:24:01.755Z,98297.20
2018-08-27T23:26:31.193Z,98297.56
2018-08-27T23:29:00.150Z,98294.83
2018-08-27T23:31:29.033Z,98305.77
2018-08-27T23:33:57.664Z,98303.14
2018-08-27T23:36:26.726Z,98305.08
2018-08-27T23:38:55.415Z,98309.19
2018-08-27T23:41:24.297Z,98317.28
2018-08-27T23:43:52.954Z,98321.28
2018-08-27T23:46:21.519Z,98318.09
2018-08-27T23:48:51.220Z,98319.22
2018-08-27T23:51:22.190Z,98312.72
2018-08-27T23:53:51.653Z,98322.30
2018-08-27T23:56:21.059Z,98326.30
2018-08-27T23:58:49.843Z,98327.99
